sensor_id;sensor_type;location;lat;lon;timestamp;temperature;humidity
65584;DHT22;62116;43.582;1.470;2023-05-20T00:02:05;13.83;75.58
65584;DHT22;62116;43.582;1.470;2023-05-20T00:04:30;13.78;75.61
65584;DHT22;62116;43.582;1.470;2023-05-20T00:06:56;13.77;75.86
65584;DHT22;62116;43.582;1.470;2023-05-20T00:09:21;13.77;75.63
65584;DHT22;62116;43.582;1.470;2023-05-20T00:11:46;13.71;75.59
65584;DHT22;62116;43.582;1.470;2023-05-20T00:14:12;13.68;75.72
65584;DHT22;62116;43.582;1.470;2023-05-20T00:16:37;13.65;75.90
65584;DHT22;62116;43.582;1.470;2023-05-20T00:19:02;13.62;76.22
65584;DHT22;62116;43.582;1.470;2023-05-20T00:21:28;13.59;76.33
65584;DHT22;62116;43.582;1.470;2023-05-20T00:23:54;13.59;75.94
65584;DHT22;62116;43.582;1.470;2023-05-20T00:26:20;13.58;75.98
65584;DHT22;62116;43.582;1.470;2023-05-20T00:28:46;13.64;75.20
65584;DHT22;62116;43.582;1.470;2023-05-20T00:31:12;13.64;75.62
65584;DHT22;62116;43.582;1.470;2023-05-20T00:33:37;13.62;75.68
65584;DHT22;62116;43.582;1.470;2023-05-20T00:36:03;13.57;76.10
65584;DHT22;62116;43.582;1.470;2023-05-20T00:38:29;13.50;76.04
65584;DHT22;62116;43.582;1.470;2023-05-20T00:40:54;13.48;76.39
65584;DHT22;62116;43.582;1.470;2023-05-20T00:43:19;13.43;76.52
65584;DHT22;62116;43.582;1.470;2023-05-20T00:45:46;13.44;76.71
65584;DHT22;62116;43.582;1.470;2023-05-20T00:48:12;13.41;76.83
65584;DHT22;62116;43.582;1.470;2023-05-20T00:50:38;13.41;76.90
65584;DHT22;62116;43.582;1.470;2023-05-20T00:53:05;13.41;76.94
65584;DHT22;62116;43.582;1.470;2023-05-20T00:55:31;13.38;77.21
65584;DHT22;62116;43.582;1.470;2023-05-20T00:57:56;13.37;77.40
65584;DHT22;62116;43.582;1.470;2023-05-20T01:00:22;13.37;77.58
65584;DHT22;62116;43.582;1.470;2023-05-20T01:02:47;13.35;77.12
65584;DHT22;62116;43.582;1.470;2023-05-20T01:05:13;13.30;77.18
65584;DHT22;62116;43.582;1.470;2023-05-20T01:07:38;13.27;77.06
65584;DHT22;62116;43.582;1.470;2023-05-20T01:10:04;13.25;77.53
65584;DHT22;62116;43.582;1.470;2023-05-20T01:12:42;13.24;77.98
65584;DHT22;62116;43.582;1.470;2023-05-20T01:15:09;13.28;77.89
65584;DHT22;62116;43.582;1.470;2023-05-20T01:17:51;13.28;77.60
65584;DHT22;62116;43.582;1.470;2023-05-20T01:20:18;13.27;77.83
65584;DHT22;62116;43.582;1.470;2023-05-20T01:22:48;13.30;77.94
65584;DHT22;62116;43.582;1.470;2023-05-20T01:25:14;13.25;77.96
65584;DHT22;62116;43.582;1.470;2023-05-20T01:27:40;13.23;78.01
65584;DHT22;62116;43.582;1.470;2023-05-20T01:30:06;13.24;78.07
65584;DHT22;62116;43.582;1.470;2023-05-20T01:32:36;13.21;78.26
65584;DHT22;62116;43.582;1.470;2023-05-20T01:35:03;13.21;78.34
65584;DHT22;62116;43.582;1.470;2023-05-20T01:37:30;13.20;78.29
65584;DHT22;62116;43.582;1.470;2023-05-20T01:39:56;13.20;78.11
65584;DHT22;62116;43.582;1.470;2023-05-20T01:42:22;13.20;78.56
65584;DHT22;62116;43.582;1.470;2023-05-20T01:44:50;13.18;78.45
65584;DHT22;62116;43.582;1.470;2023-05-20T01:47:15;13.15;78.24
65584;DHT22;62116;43.582;1.470;2023-05-20T01:49:40;13.17;78.56
65584;DHT22;62116;43.582;1.470;2023-05-20T01:52:06;13.17;78.75
65584;DHT22;62116;43.582;1.470;2023-05-20T01:54:31;13.17;78.48
65584;DHT22;62116;43.582;1.470;2023-05-20T01:56:56;13.17;78.84
65584;DHT22;62116;43.582;1.470;2023-05-20T01:59:22;13.14;78.71
65584;DHT22;62116;43.582;1.470;2023-05-20T02:01:47;13.14;79.06
65584;DHT22;62116;43.582;1.470;2023-05-20T02:04:13;13.17;78.91
65584;DHT22;62116;43.582;1.470;2023-05-20T02:06:38;13.15;78.94
65584;DHT22;62116;43.582;1.470;2023-05-20T02:09:04;13.20;79.05
65584;DHT22;62116;43.582;1.470;2023-05-20T02:11:29;13.18;79.02
65584;DHT22;62116;43.582;1.470;2023-05-20T02:13:55;13.18;79.25
65584;DHT22;62116;43.582;1.470;2023-05-20T02:16:20;13.17;78.85
65584;DHT22;62116;43.582;1.470;2023-05-20T02:18:46;13.17;79.01
65584;DHT22;62116;43.582;1.470;2023-05-20T02:21:11;13.18;78.89
65584;DHT22;62116;43.582;1.470;2023-05-20T02:23:37;13.14;78.99
65584;DHT22;62116;43.582;1.470;2023-05-20T02:26:02;13.14;78.84
65584;DHT22;62116;43.582;1.470;2023-05-20T02:28:27;13.10;78.98
65584;DHT22;62116;43.582;1.470;2023-05-20T02:30:53;13.13;79.19
65584;DHT22;62116;43.582;1.470;2023-05-20T02:33:18;13.15;79.44
65584;DHT22;62116;43.582;1.470;2023-05-20T02:35:44;13.14;78.68
65584;DHT22;62116;43.582;1.470;2023-05-20T02:38:10;13.14;78.79
65584;DHT22;62116;43.582;1.470;2023-05-20T02:40:36;13.13;79.12
65584;DHT22;62116;43.582;1.470;2023-05-20T02:43:01;13.13;79.38
65584;DHT22;62116;43.582;1.470;2023-05-20T02:45:27;13.11;79.44
65584;DHT22;62116;43.582;1.470;2023-05-20T02:47:52;13.10;79.27
65584;DHT22;62116;43.582;1.470;2023-05-20T02:50:18;13.07;79.26
65584;DHT22;62116;43.582;1.470;2023-05-20T02:52:43;13.06;79.35
65584;DHT22;62116;43.582;1.470;2023-05-20T02:55:09;13.06;79.42
65584;DHT22;62116;43.582;1.470;2023-05-20T02:57:35;13.06;79.73
65584;DHT22;62116;43.582;1.470;2023-05-20T03:00:06;13.03;79.47
65584;DHT22;62116;43.582;1.470;2023-05-20T03:02:35;13.00;79.78
65584;DHT22;62116;43.582;1.470;2023-05-20T03:05:01;12.97;80.03
65584;DHT22;62116;43.582;1.470;2023-05-20T03:07:26;13.03;80.16
65584;DHT22;62116;43.582;1.470;2023-05-20T03:09:52;13.00;80.10
65584;DHT22;62116;43.582;1.470;2023-05-20T03:12:17;13.00;80.12
65584;DHT22;62116;43.582;1.470;2023-05-20T03:14:43;12.97;80.17
65584;DHT22;62116;43.582;1.470;2023-05-20T03:17:09;12.97;80.34
65584;DHT22;62116;43.582;1.470;2023-05-20T03:19:34;12.93;80.38
65584;DHT22;62116;43.582;1.470;2023-05-20T03:22:00;12.94;80.64
65584;DHT22;62116;43.582;1.470;2023-05-20T03:24:27;12.94;80.68
65584;DHT22;62116;43.582;1.470;2023-05-20T03:26:52;12.93;80.69
65584;DHT22;62116;43.582;1.470;2023-05-20T03:29:18;12.91;80.56
65584;DHT22;62116;43.582;1.470;2023-05-20T03:31:43;12.91;80.63
65584;DHT22;62116;43.582;1.470;2023-05-20T03:34:09;12.93;80.76
65584;DHT22;62116;43.582;1.470;2023-05-20T03:36:34;12.94;80.88
65584;DHT22;62116;43.582;1.470;2023-05-20T03:38:59;12.96;80.96
65584;DHT22;62116;43.582;1.470;2023-05-20T03:41:26;12.99;81.00
65584;DHT22;62116;43.582;1.470;2023-05-20T03:43:52;12.97;81.28
65584;DHT22;62116;43.582;1.470;2023-05-20T03:46:17;13.00;81.01
65584;DHT22;62116;43.582;1.470;2023-05-20T03:48:42;13.00;80.96
65584;DHT22;62116;43.582;1.470;2023-05-20T03:51:08;13.00;80.86
65584;DHT22;62116;43.582;1.470;2023-05-20T03:53:36;12.99;80.85
65584;DHT22;62116;43.582;1.470;2023-05-20T03:56:01;12.96;80.94
65584;DHT22;62116;43.582;1.470;2023-05-20T03:58:27;12.97;81.22
65584;DHT22;62116;43.582;1.470;2023-05-20T04:00:55;12.96;81.09
65584;DHT22;62116;43.582;1.470;2023-05-20T04:03:21;12.97;81.17
65584;DHT22;62116;43.582;1.470;2023-05-20T04:05:47;12.94;81.13
65584;DHT22;62116;43.582;1.470;2023-05-20T04:08:12;12.94;81.49
65584;DHT22;62116;43.582;1.470;2023-05-20T04:10:43;12.96;81.21
65584;DHT22;62116;43.582;1.470;2023-05-20T04:13:09;12.93;81.25
65584;DHT22;62116;43.582;1.470;2023-05-20T04:15:35;12.89;81.40
65584;DHT22;62116;43.582;1.470;2023-05-20T04:18:01;12.87;81.66
65584;DHT22;62116;43.582;1.470;2023-05-20T04:20:26;12.89;81.65
65584;DHT22;62116;43.582;1.470;2023-05-20T04:22:52;12.87;81.49
65584;DHT22;62116;43.582;1.470;2023-05-20T04:25:18;12.86;81.43
65584;DHT22;62116;43.582;1.470;2023-05-20T04:27:47;12.87;81.77
65584;DHT22;62116;43.582;1.470;2023-05-20T04:30:14;12.84;81.78
65584;DHT22;62116;43.582;1.470;2023-05-20T04:32:42;12.87;81.91
65584;DHT22;62116;43.582;1.470;2023-05-20T04:35:08;12.84;82.03
65584;DHT22;62116;43.582;1.470;2023-05-20T04:37:36;12.84;81.91
65584;DHT22;62116;43.582;1.470;2023-05-20T04:40:03;12.86;81.92
65584;DHT22;62116;43.582;1.470;2023-05-20T04:42:31;12.86;81.95
65584;DHT22;62116;43.582;1.470;2023-05-20T04:44:57;12.84;82.27
65584;DHT22;62116;43.582;1.470;2023-05-20T04:47:23;12.84;82.00
65584;DHT22;62116;43.582;1.470;2023-05-20T04:49:48;12.84;82.03
65584;DHT22;62116;43.582;1.470;2023-05-20T04:52:14;12.86;82.13
65584;DHT22;62116;43.582;1.470;2023-05-20T04:54:40;12.84;82.21
65584;DHT22;62116;43.582;1.470;2023-05-20T04:57:05;12.83;82.13
65584;DHT22;62116;43.582;1.470;2023-05-20T04:59:31;12.81;82.15
65584;DHT22;62116;43.582;1.470;2023-05-20T05:01:56;12.80;82.37
65584;DHT22;62116;43.582;1.470;2023-05-20T05:04:22;12.81;82.48
65584;DHT22;62116;43.582;1.470;2023-05-20T05:06:48;12.77;82.53
65584;DHT22;62116;43.582;1.470;2023-05-20T05:09:13;12.76;82.58
65584;DHT22;62116;43.582;1.470;2023-05-20T05:11:39;12.73;82.60
65584;DHT22;62116;43.582;1.470;2023-05-20T05:14:05;12.73;82.74
65584;DHT22;62116;43.582;1.470;2023-05-20T05:16:30;12.72;82.98
65584;DHT22;62116;43.582;1.470;2023-05-20T05:18:55;12.75;82.86
65584;DHT22;62116;43.582;1.470;2023-05-20T05:21:21;12.76;82.80
65584;DHT22;62116;43.582;1.470;2023-05-20T05:23:46;12.76;82.84
65584;DHT22;62116;43.582;1.470;2023-05-20T05:26:12;12.80;82.59
65584;DHT22;62116;43.582;1.470;2023-05-20T05:28:37;12.83;82.92
65584;DHT22;62116;43.582;1.470;2023-05-20T05:31:02;12.80;82.96
65584;DHT22;62116;43.582;1.470;2023-05-20T05:33:29;12.80;83.23
65584;DHT22;62116;43.582;1.470;2023-05-20T05:35:54;12.80;83.22
65584;DHT22;62116;43.582;1.470;2023-05-20T05:38:23;12.80;83.10
65584;DHT22;62116;43.582;1.470;2023-05-20T05:40:52;12.80;83.12
65584;DHT22;62116;43.582;1.470;2023-05-20T05:43:17;12.87;83.16
65584;DHT22;62116;43.582;1.470;2023-05-20T05:45:42;12.89;83.33
65584;DHT22;62116;43.582;1.470;2023-05-20T05:48:08;12.91;83.23
65584;DHT22;62116;43.582;1.470;2023-05-20T05:50:33;12.96;82.97
65584;DHT22;62116;43.582;1.470;2023-05-20T05:52:59;12.99;83.22
65584;DHT22;62116;43.582;1.470;2023-05-20T05:55:24;12.99;83.08
65584;DHT22;62116;43.582;1.470;2023-05-20T05:57:50;13.00;83.18
65584;DHT22;62116;43.582;1.470;2023-05-20T06:00:16;13.04;83.32
65584;DHT22;62116;43.582;1.470;2023-05-20T06:02:41;13.07;83.29
65584;DHT22;62116;43.582;1.470;2023-05-20T06:05:07;13.10;83.28
65584;DHT22;62116;43.582;1.470;2023-05-20T06:07:32;13.10;83.15
65584;DHT22;62116;43.582;1.470;2023-05-20T06:09:58;13.11;83.27
65584;DHT22;62116;43.582;1.470;2023-05-20T06:12:23;13.17;83.34
65584;DHT22;62116;43.582;1.470;2023-05-20T06:14:49;13.18;83.31
65584;DHT22;62116;43.582;1.470;2023-05-20T06:17:14;13.20;83.19
65584;DHT22;62116;43.582;1.470;2023-05-20T06:19:39;13.24;83.03
65584;DHT22;62116;43.582;1.470;2023-05-20T06:22:05;13.28;82.93
65584;DHT22;62116;43.582;1.470;2023-05-20T06:24:30;13.28;83.03
65584;DHT22;62116;43.582;1.470;2023-05-20T06:26:56;13.28;83.14
65584;DHT22;62116;43.582;1.470;2023-05-20T06:29:22;13.33;82.99
65584;DHT22;62116;43.582;1.470;2023-05-20T06:31:47;13.40;82.92
65584;DHT22;62116;43.582;1.470;2023-05-20T06:34:13;13.38;82.89
65584;DHT22;62116;43.582;1.470;2023-05-20T06:36:38;13.38;82.72
65584;DHT22;62116;43.582;1.470;2023-05-20T06:39:04;13.40;82.79
65584;DHT22;62116;43.582;1.470;2023-05-20T06:41:31;13.45;82.68
65584;DHT22;62116;43.582;1.470;2023-05-20T06:43:57;13.50;82.80
65584;DHT22;62116;43.582;1.470;2023-05-20T06:46:22;13.48;82.51
65584;DHT22;62116;43.582;1.470;2023-05-20T06:48:47;13.54;82.25
65584;DHT22;62116;43.582;1.470;2023-05-20T06:51:13;13.57;82.24
65584;DHT22;62116;43.582;1.470;2023-05-20T06:53:38;13.55;82.37
65584;DHT22;62116;43.582;1.470;2023-05-20T06:56:04;13.59;82.37
65584;DHT22;62116;43.582;1.470;2023-05-20T06:58:29;13.61;82.55
65584;DHT22;62116;43.582;1.470;2023-05-20T07:00:55;13.64;82.27
65584;DHT22;62116;43.582;1.470;2023-05-20T07:03:20;13.64;81.73
65584;DHT22;62116;43.582;1.470;2023-05-20T07:05:47;13.64;81.70
65584;DHT22;62116;43.582;1.470;2023-05-20T07:08:12;13.68;81.86
65584;DHT22;62116;43.582;1.470;2023-05-20T07:10:37;13.72;81.88
65584;DHT22;62116;43.582;1.470;2023-05-20T07:13:03;13.74;81.99
65584;DHT22;62116;43.582;1.470;2023-05-20T07:15:28;13.78;81.30
65584;DHT22;62116;43.582;1.470;2023-05-20T07:17:57;13.82;81.50
65584;DHT22;62116;43.582;1.470;2023-05-20T07:20:23;13.85;81.40
65584;DHT22;62116;43.582;1.470;2023-05-20T07:22:48;13.86;80.50
65584;DHT22;62116;43.582;1.470;2023-05-20T07:25:15;13.86;80.42
65584;DHT22;62116;43.582;1.470;2023-05-20T07:27:40;13.86;80.45
65584;DHT22;62116;43.582;1.470;2023-05-20T07:30:06;13.94;80.41
65584;DHT22;62116;43.582;1.470;2023-05-20T07:32:32;13.98;80.31
65584;DHT22;62116;43.582;1.470;2023-05-20T07:34:58;13.98;80.27
65584;DHT22;62116;43.582;1.470;2023-05-20T07:37:23;13.99;80.61
65584;DHT22;62116;43.582;1.470;2023-05-20T07:39:48;14.04;80.22
65584;DHT22;62116;43.582;1.470;2023-05-20T07:42:14;14.04;80.09
65584;DHT22;62116;43.582;1.470;2023-05-20T07:44:39;14.06;80.09
65584;DHT22;62116;43.582;1.470;2023-05-20T07:47:05;14.09;80.31
65584;DHT22;62116;43.582;1.470;2023-05-20T07:49:30;14.19;79.31
65584;DHT22;62116;43.582;1.470;2023-05-20T07:51:56;14.16;79.49
65584;DHT22;62116;43.582;1.470;2023-05-20T07:54:22;14.18;79.63
65584;DHT22;62116;43.582;1.470;2023-05-20T07:56:47;14.20;79.46
65584;DHT22;62116;43.582;1.470;2023-05-20T07:59:13;14.25;79.01
65584;DHT22;62116;43.582;1.470;2023-05-20T08:01:40;14.30;79.16
65584;DHT22;62116;43.582;1.470;2023-05-20T08:04:06;14.36;79.03
65584;DHT22;62116;43.582;1.470;2023-05-20T08:06:31;14.39;78.31
65584;DHT22;62116;43.582;1.470;2023-05-20T08:08:57;14.39;78.97
65584;DHT22;62116;43.582;1.470;2023-05-20T08:11:23;14.46;78.84
65584;DHT22;62116;43.582;1.470;2023-05-20T08:13:48;14.50;78.11
65584;DHT22;62116;43.582;1.470;2023-05-20T08:16:14;14.53;78.46
65584;DHT22;62116;43.582;1.470;2023-05-20T08:18:39;14.56;78.03
65584;DHT22;62116;43.582;1.470;2023-05-20T08:21:05;14.57;77.60
65584;DHT22;62116;43.582;1.470;2023-05-20T08:23:34;14.62;77.35
65584;DHT22;62116;43.582;1.470;2023-05-20T08:26:00;14.64;77.49
65584;DHT22;62116;43.582;1.470;2023-05-20T08:28:29;14.70;77.69
65584;DHT22;62116;43.582;1.470;2023-05-20T08:30:54;14.76;76.77
65584;DHT22;62116;43.582;1.470;2023-05-20T08:33:21;14.81;76.55
65584;DHT22;62116;43.582;1.470;2023-05-20T08:35:47;14.87;76.62
65584;DHT22;62116;43.582;1.470;2023-05-20T08:38:12;14.96;76.13
65584;DHT22;62116;43.582;1.470;2023-05-20T08:40:38;14.97;76.00
65584;DHT22;62116;43.582;1.470;2023-05-20T08:43:03;15.00;75.96
65584;DHT22;62116;43.582;1.470;2023-05-20T08:45:31;15.08;75.37
65584;DHT22;62116;43.582;1.470;2023-05-20T08:47:57;15.14;75.50
65584;DHT22;62116;43.582;1.470;2023-05-20T08:50:22;15.17;74.68
65584;DHT22;62116;43.582;1.470;2023-05-20T08:52:48;15.15;74.75
65584;DHT22;62116;43.582;1.470;2023-05-20T08:55:18;15.18;74.59
65584;DHT22;62116;43.582;1.470;2023-05-20T08:57:54;15.21;74.07
65584;DHT22;62116;43.582;1.470;2023-05-20T09:00:21;15.25;74.46
65584;DHT22;62116;43.582;1.470;2023-05-20T09:02:51;15.30;74.49
65584;DHT22;62116;43.582;1.470;2023-05-20T09:05:17;15.34;74.93
65584;DHT22;62116;43.582;1.470;2023-05-20T09:07:43;15.38;74.69
65584;DHT22;62116;43.582;1.470;2023-05-20T09:10:09;15.44;74.93
65584;DHT22;62116;43.582;1.470;2023-05-20T09:12:35;15.48;74.97
65584;DHT22;62116;43.582;1.470;2023-05-20T09:15:01;15.54;75.02
65584;DHT22;62116;43.582;1.470;2023-05-20T09:17:27;15.54;74.28
65584;DHT22;62116;43.582;1.470;2023-05-20T09:19:53;15.55;74.07
65584;DHT22;62116;43.582;1.470;2023-05-20T09:22:26;15.59;74.86
65584;DHT22;62116;43.582;1.470;2023-05-20T09:24:52;15.68;72.83
65584;DHT22;62116;43.582;1.470;2023-05-20T09:27:18;15.69;73.72
65584;DHT22;62116;43.582;1.470;2023-05-20T09:29:46;15.73;73.56
65584;DHT22;62116;43.582;1.470;2023-05-20T09:32:12;15.75;74.00
65584;DHT22;62116;43.582;1.470;2023-05-20T09:34:38;15.79;73.10
65584;DHT22;62116;43.582;1.470;2023-05-20T09:37:05;15.83;73.74
65584;DHT22;62116;43.582;1.470;2023-05-20T09:39:34;15.88;73.28
65584;DHT22;62116;43.582;1.470;2023-05-20T09:42:05;15.95;73.44
65584;DHT22;62116;43.582;1.470;2023-05-20T09:44:32;16.02;73.50
65584;DHT22;62116;43.582;1.470;2023-05-20T09:46:58;16.12;73.66
65584;DHT22;62116;43.582;1.470;2023-05-20T09:49:25;16.16;73.13
65584;DHT22;62116;43.582;1.470;2023-05-20T09:51:53;16.24;72.41
65584;DHT22;62116;43.582;1.470;2023-05-20T09:54:19;16.34;72.52
65584;DHT22;62116;43.582;1.470;2023-05-20T09:56:46;16.40;71.86
65584;DHT22;62116;43.582;1.470;2023-05-20T09:59:14;16.47;71.60
65584;DHT22;62116;43.582;1.470;2023-05-20T10:01:41;16.57;71.82
65584;DHT22;62116;43.582;1.470;2023-05-20T10:04:08;16.64;71.33
65584;DHT22;62116;43.582;1.470;2023-05-20T10:09:16;16.73;70.78
65584;DHT22;62116;43.582;1.470;2023-05-20T10:19:48;16.92;68.95
65584;DHT22;62116;43.582;1.470;2023-05-20T10:22:25;16.94;69.90
65584;DHT22;62116;43.582;1.470;2023-05-20T10:24:57;16.94;69.35
65584;DHT22;62116;43.582;1.470;2023-05-20T10:27:24;17.03;69.15
65584;DHT22;62116;43.582;1.470;2023-05-20T10:29:53;17.06;68.49
65584;DHT22;62116;43.582;1.470;2023-05-20T10:32:29;17.15;69.49
65584;DHT22;62116;43.582;1.470;2023-05-20T10:35:01;17.24;69.12
65584;DHT22;62116;43.582;1.470;2023-05-20T10:37:31;17.28;67.19
65584;DHT22;62116;43.582;1.470;2023-05-20T10:42:31;17.32;67.75
65584;DHT22;62116;43.582;1.470;2023-05-20T10:44:56;17.39;68.65
65584;DHT22;62116;43.582;1.470;2023-05-20T10:47:22;17.42;66.69
65584;DHT22;62116;43.582;1.470;2023-05-20T10:49:47;17.46;65.92
65584;DHT22;62116;43.582;1.470;2023-05-20T10:52:13;17.55;66.26
65584;DHT22;62116;43.582;1.470;2023-05-20T10:54:47;17.69;63.68
65584;DHT22;62116;43.582;1.470;2023-05-20T10:57:13;17.71;64.72
65584;DHT22;62116;43.582;1.470;2023-05-20T10:59:39;17.75;65.03
65584;DHT22;62116;43.582;1.470;2023-05-20T11:02:05;17.75;64.33
65584;DHT22;62116;43.582;1.470;2023-05-20T11:04:31;17.82;64.77
65584;DHT22;62116;43.582;1.470;2023-05-20T11:06:56;17.87;64.93
65584;DHT22;62116;43.582;1.470;2023-05-20T11:09:23;17.99;63.91
65584;DHT22;62116;43.582;1.470;2023-05-20T11:11:49;18.06;64.25
65584;DHT22;62116;43.582;1.470;2023-05-20T11:14:15;18.06;64.14
65584;DHT22;62116;43.582;1.470;2023-05-20T11:16:42;18.10;62.97
65584;DHT22;62116;43.582;1.470;2023-05-20T11:19:13;18.16;62.17
65584;DHT22;62116;43.582;1.470;2023-05-20T11:21:42;18.19;62.21
65584;DHT22;62116;43.582;1.470;2023-05-20T11:24:08;18.23;63.82
65584;DHT22;62116;43.582;1.470;2023-05-20T11:26:34;18.34;60.71
65584;DHT22;62116;43.582;1.470;2023-05-20T11:29:00;18.41;62.53
65584;DHT22;62116;43.582;1.470;2023-05-20T11:31:25;18.44;61.62
65584;DHT22;62116;43.582;1.470;2023-05-20T11:33:52;18.50;61.26
65584;DHT22;62116;43.582;1.470;2023-05-20T11:36:17;18.60;59.61
65584;DHT22;62116;43.582;1.470;2023-05-20T11:38:45;18.67;59.70
65584;DHT22;62116;43.582;1.470;2023-05-20T11:41:11;18.78;61.31
65584;DHT22;62116;43.582;1.470;2023-05-20T11:43:36;18.84;60.42
65584;DHT22;62116;43.582;1.470;2023-05-20T11:46:03;18.83;57.99
65584;DHT22;62116;43.582;1.470;2023-05-20T11:48:29;18.85;57.74
65584;DHT22;62116;43.582;1.470;2023-05-20T11:50:55;18.84;57.94
65584;DHT22;62116;43.582;1.470;2023-05-20T11:53:22;18.83;58.06
65584;DHT22;62116;43.582;1.470;2023-05-20T11:55:52;18.81;58.29
65584;DHT22;62116;43.582;1.470;2023-05-20T11:58:20;18.75;57.51
65584;DHT22;62116;43.582;1.470;2023-05-20T12:00:46;18.74;58.00
65584;DHT22;62116;43.582;1.470;2023-05-20T12:03:11;18.74;58.37
65584;DHT22;62116;43.582;1.470;2023-05-20T12:05:37;18.84;57.71
65584;DHT22;62116;43.582;1.470;2023-05-20T12:08:03;18.83;58.05
65584;DHT22;62116;43.582;1.470;2023-05-20T12:10:29;18.90;56.91
65584;DHT22;62116;43.582;1.470;2023-05-20T12:12:55;18.95;57.19
65584;DHT22;62116;43.582;1.470;2023-05-20T12:15:20;18.92;56.23
65584;DHT22;62116;43.582;1.470;2023-05-20T12:17:48;18.95;56.08
65584;DHT22;62116;43.582;1.470;2023-05-20T12:20:15;19.07;57.41
65584;DHT22;62116;43.582;1.470;2023-05-20T12:22:45;19.16;57.44
65584;DHT22;62116;43.582;1.470;2023-05-20T12:39:43;19.22;56.33
65584;DHT22;62116;43.582;1.470;2023-05-20T12:52:23;19.08;56.72
65584;DHT22;62116;43.582;1.470;2023-05-20T12:54:48;19.07;55.93
65584;DHT22;62116;43.582;1.470;2023-05-20T12:57:14;19.07;55.86
65584;DHT22;62116;43.582;1.470;2023-05-20T12:59:39;19.04;55.41
65584;DHT22;62116;43.582;1.470;2023-05-20T13:02:05;19.00;55.75
65584;DHT22;62116;43.582;1.470;2023-05-20T13:04:31;18.92;56.40
65584;DHT22;62116;43.582;1.470;2023-05-20T13:06:57;18.90;56.31
65584;DHT22;62116;43.582;1.470;2023-05-20T13:09:22;18.81;55.35
65584;DHT22;62116;43.582;1.470;2023-05-20T13:11:48;18.77;56.41
65584;DHT22;62116;43.582;1.470;2023-05-20T13:14:13;18.72;56.33
65584;DHT22;62116;43.582;1.470;2023-05-20T13:16:39;18.70;56.41
65584;DHT22;62116;43.582;1.470;2023-05-20T13:19:04;18.65;55.55
65584;DHT22;62116;43.582;1.470;2023-05-20T13:21:30;18.65;55.83
65584;DHT22;62116;43.582;1.470;2023-05-20T13:23:56;18.67;55.07
65584;DHT22;62116;43.582;1.470;2023-05-20T13:26:21;18.61;54.70
65584;DHT22;62116;43.582;1.470;2023-05-20T13:28:47;18.59;53.75
65584;DHT22;62116;43.582;1.470;2023-05-20T13:31:13;18.53;52.17
65584;DHT22;62116;43.582;1.470;2023-05-20T13:33:38;18.57;53.45
65584;DHT22;62116;43.582;1.470;2023-05-20T13:36:04;18.59;53.53
65584;DHT22;62116;43.582;1.470;2023-05-20T13:38:32;18.61;52.29
65584;DHT22;62116;43.582;1.470;2023-05-20T13:40:58;18.59;52.40
65584;DHT22;62116;43.582;1.470;2023-05-20T13:43:24;18.64;53.12
65584;DHT22;62116;43.582;1.470;2023-05-20T13:45:51;18.71;53.01
65584;DHT22;62116;43.582;1.470;2023-05-20T13:48:16;18.83;53.44
65584;DHT22;62116;43.582;1.470;2023-05-20T13:50:42;18.88;53.14
65584;DHT22;62116;43.582;1.470;2023-05-20T13:53:07;18.95;52.83
65584;DHT22;62116;43.582;1.470;2023-05-20T13:55:37;18.97;51.80
65584;DHT22;62116;43.582;1.470;2023-05-20T13:58:02;19.10;51.80
65584;DHT22;62116;43.582;1.470;2023-05-20T14:00:30;19.15;52.87
65584;DHT22;62116;43.582;1.470;2023-05-20T14:02:56;19.25;53.08
65584;DHT22;62116;43.582;1.470;2023-05-20T14:05:21;19.34;53.60
65584;DHT22;62116;43.582;1.470;2023-05-20T14:07:47;19.45;52.05
65584;DHT22;62116;43.582;1.470;2023-05-20T14:10:12;19.54;51.91
65584;DHT22;62116;43.582;1.470;2023-05-20T14:12:38;19.58;51.92
65584;DHT22;62116;43.582;1.470;2023-05-20T14:15:03;19.61;50.92
65584;DHT22;62116;43.582;1.470;2023-05-20T14:17:29;19.61;51.24
65584;DHT22;62116;43.582;1.470;2023-05-20T14:19:54;19.61;52.47
65584;DHT22;62116;43.582;1.470;2023-05-20T14:22:20;19.65;52.21
65584;DHT22;62116;43.582;1.470;2023-05-20T14:24:45;19.63;52.11
65584;DHT22;62116;43.582;1.470;2023-05-20T14:27:10;19.61;50.90
65584;DHT22;62116;43.582;1.470;2023-05-20T14:29:36;19.65;51.13
65584;DHT22;62116;43.582;1.470;2023-05-20T14:32:01;19.62;51.94
65584;DHT22;62116;43.582;1.470;2023-05-20T14:34:29;19.63;52.90
65584;DHT22;62116;43.582;1.470;2023-05-20T14:36:54;19.67;54.28
65584;DHT22;62116;43.582;1.470;2023-05-20T14:39:21;19.69;52.38
65584;DHT22;62116;43.582;1.470;2023-05-20T14:41:47;19.69;52.56
65584;DHT22;62116;43.582;1.470;2023-05-20T14:44:12;19.69;52.02
65584;DHT22;62116;43.582;1.470;2023-05-20T14:46:38;19.67;50.75
65584;DHT22;62116;43.582;1.470;2023-05-20T14:49:03;19.63;50.81
65584;DHT22;62116;43.582;1.470;2023-05-20T14:51:28;19.63;51.69
65584;DHT22;62116;43.582;1.470;2023-05-20T14:53:54;19.69;51.48
65584;DHT22;62116;43.582;1.470;2023-05-20T14:56:19;19.63;51.15
65584;DHT22;62116;43.582;1.470;2023-05-20T14:58:45;19.66;51.87
65584;DHT22;62116;43.582;1.470;2023-05-20T15:01:11;19.65;51.73
65584;DHT22;62116;43.582;1.470;2023-05-20T15:03:36;19.56;51.89
65584;DHT22;62116;43.582;1.470;2023-05-20T15:06:01;19.54;51.69
65584;DHT22;62116;43.582;1.470;2023-05-20T15:08:27;19.49;52.49
65584;DHT22;62116;43.582;1.470;2023-05-20T15:10:52;19.39;53.33
65584;DHT22;62116;43.582;1.470;2023-05-20T15:13:18;19.32;52.17
65584;DHT22;62116;43.582;1.470;2023-05-20T15:15:44;19.24;53.44
65584;DHT22;62116;43.582;1.470;2023-05-20T15:18:09;19.21;53.66
65584;DHT22;62116;43.582;1.470;2023-05-20T15:20:35;19.21;54.23
65584;DHT22;62116;43.582;1.470;2023-05-20T15:23:00;19.18;54.56
65584;DHT22;62116;43.582;1.470;2023-05-20T15:25:26;19.18;54.91
65584;DHT22;62116;43.582;1.470;2023-05-20T15:27:51;19.16;55.78
65584;DHT22;62116;43.582;1.470;2023-05-20T15:30:16;19.16;54.80
65584;DHT22;62116;43.582;1.470;2023-05-20T15:32:42;19.12;54.11
65584;DHT22;62116;43.582;1.470;2023-05-20T15:35:08;19.08;54.03
65584;DHT22;62116;43.582;1.470;2023-05-20T15:37:33;19.08;53.83
65584;DHT22;62116;43.582;1.470;2023-05-20T15:39:59;19.10;54.61
65584;DHT22;62116;43.582;1.470;2023-05-20T15:42:24;19.11;53.28
65584;DHT22;62116;43.582;1.470;2023-05-20T15:44:49;19.05;53.38
65584;DHT22;62116;43.582;1.470;2023-05-20T15:47:15;19.02;53.74
65584;DHT22;62116;43.582;1.470;2023-05-20T15:49:40;19.00;54.48
65584;DHT22;62116;43.582;1.470;2023-05-20T15:52:06;19.01;55.46
65584;DHT22;62116;43.582;1.470;2023-05-20T15:54:31;19.01;54.34
65584;DHT22;62116;43.582;1.470;2023-05-20T15:56:57;19.04;54.20
65584;DHT22;62116;43.582;1.470;2023-05-20T15:59:22;19.00;54.48
65584;DHT22;62116;43.582;1.470;2023-05-20T16:01:47;18.98;54.87